createdAt,value
2018-02-12T00:00:04.440Z,0
2018-02-12T00:05:03.292Z,0
2018-02-12T00:10:02.791Z,0
2018-02-12T00:15:03.274Z,0
2018-02-12T00:20:02.805Z,0
2018-02-12T00:25:03.276Z,0
2018-02-12T00:30:02.783Z,0
2018-02-12T00:35:03.294Z,0
2018-02-12T00:40:02.776Z,0
2018-02-12T00:45:03.257Z,0
2018-02-12T00:50:02.648Z,0
2018-02-12T00:55:03.065Z,0
2018-02-12T01:00:02.476Z,0
2018-02-12T01:05:03.048Z,0
2018-02-12T01:10:02.584Z,0
2018-02-12T01:15:03.045Z,0
2018-02-12T01:20:02.550Z,0
2018-02-12T01:25:03.059Z,0
2018-02-12T01:30:03.467Z,0
2018-02-12T01:35:02.812Z,0
2018-02-12T01:40:03.253Z,0
2018-02-12T01:45:02.659Z,0
2018-02-12T01:50:03.187Z,0
2018-02-12T01:55:02.643Z,0
2018-02-12T02:00:03.077Z,0
2018-02-12T02:05:02.582Z,0
2018-02-12T02:10:03.080Z,0
2018-02-12T02:15:02.490Z,0
2018-02-12T02:20:03.026Z,0
2018-02-12T02:25:02.457Z,0
2018-02-12T02:30:02.939Z,0
2018-02-12T02:35:03.394Z,0
2018-02-12T02:40:02.933Z,0
2018-02-12T02:45:03.336Z,0
2018-02-12T02:50:02.806Z,0
2018-02-12T02:55:03.389Z,0
2018-02-12T03:00:02.858Z,0
2018-02-12T03:05:03.352Z,0
2018-02-12T03:10:02.854Z,0
2018-02-12T03:15:03.320Z,0
2018-02-12T03:20:02.744Z,0
2018-02-12T03:25:03.157Z,0
2018-02-12T03:30:02.596Z,0
2018-02-12T03:35:03.039Z,0
2018-02-12T03:40:02.593Z,0
2018-02-12T03:45:03.037Z,0
2018-02-12T03:50:02.488Z,0
2018-02-12T03:55:02.902Z,0
2018-02-12T04:00:03.476Z,0
2018-02-12T04:05:02.942Z,0
2018-02-12T04:10:02.480Z,0
2018-02-12T04:15:03.017Z,0
2018-02-12T04:20:02.508Z,0
2018-02-12T04:25:03.021Z,0
2018-02-12T04:30:03.450Z,0
2018-02-12T04:35:02.788Z,0
2018-02-12T04:40:03.298Z,0
2018-02-12T04:45:02.737Z,0
2018-02-12T04:50:03.196Z,0
2018-02-12T04:55:02.618Z,0
2018-02-12T05:00:03.167Z,0
2018-02-12T05:05:02.626Z,0
2018-02-12T05:10:03.157Z,0
2018-02-12T05:15:02.614Z,0
2018-02-12T05:20:03.050Z,0
2018-02-12T05:25:02.473Z,0
2018-02-12T05:30:03.094Z,0
2018-02-12T05:35:02.521Z,0
2018-02-12T05:40:02.990Z,0
2018-02-12T05:45:02.485Z,0
2018-02-12T05:50:02.923Z,0
2018-02-12T05:55:03.358Z,0
2018-02-12T06:00:02.815Z,0
2018-02-12T06:05:03.331Z,0
2018-02-12T06:10:02.785Z,0
2018-02-12T06:15:03.260Z,1
2018-02-12T06:20:02.739Z,1
2018-02-12T06:25:03.120Z,3
2018-02-12T06:30:02.523Z,4
2018-02-12T06:35:03.006Z,10
2018-02-12T06:40:02.540Z,29
2018-02-12T06:45:02.973Z,49
2018-02-12T06:50:02.475Z,58
2018-02-12T06:55:02.862Z,62
2018-02-12T07:00:03.585Z,71
2018-02-12T07:05:03.034Z,118
2018-02-12T07:10:02.565Z,169
2018-02-12T07:15:03.035Z,299
2018-02-12T07:20:02.500Z,397
2018-02-12T07:25:02.959Z,462
2018-02-12T07:30:03.416Z,498
2018-02-12T07:35:02.864Z,557
2018-02-12T07:40:03.406Z,630
2018-02-12T07:45:02.820Z,722
2018-02-12T07:50:03.265Z,846
2018-02-12T07:55:02.701Z,1000
2018-02-12T08:00:03.126Z,1000
2018-02-12T08:05:02.541Z,1000
2018-02-12T08:10:03.022Z,2000
2018-02-12T08:15:02.596Z,2000
2018-02-12T08:20:03.085Z,2000
2018-02-12T08:25:02.595Z,2000
2018-02-12T08:30:03.278Z,8000
2018-02-12T08:35:02.768Z,17000
2018-02-12T08:40:03.468Z,18000
2018-02-12T08:45:02.980Z,20000
2018-02-12T08:50:03.446Z,21000
2018-02-12T08:55:02.894Z,22000
2018-02-12T09:00:03.331Z,18000
2018-02-12T09:05:02.852Z,21000
2018-02-12T09:10:03.360Z,21000
2018-02-12T09:15:02.859Z,24000
2018-02-12T09:20:03.401Z,23000
2018-02-12T09:25:02.932Z,14000
2018-02-12T09:30:03.301Z,24000
2018-02-12T09:35:02.797Z,7000
2018-02-12T09:40:03.300Z,7000
2018-02-12T09:45:02.795Z,24000
2018-02-12T09:50:03.261Z,32000
2018-02-12T09:55:02.703Z,33000
2018-02-12T10:00:03.179Z,34000
2018-02-12T10:05:02.614Z,11000
2018-02-12T10:10:03.129Z,30000
2018-02-12T10:15:02.571Z,33000
2018-02-12T10:20:03.075Z,31000
2018-02-12T10:25:02.597Z,33000
2018-02-12T10:30:02.983Z,33000
2018-02-12T10:35:03.387Z,33000
2018-02-12T10:40:02.875Z,33000
2018-02-12T10:45:03.334Z,34000
2018-02-12T10:50:02.843Z,11000
2018-02-12T10:55:03.437Z,33000
2018-02-12T11:00:02.826Z,30000
2018-02-12T11:05:03.288Z,35000
2018-02-12T11:10:02.751Z,9000
2018-02-12T11:15:03.160Z,24000
2018-02-12T11:20:02.628Z,13000
2018-02-12T11:25:03.079Z,39000
2018-02-12T11:30:02.536Z,38000
2018-02-12T11:35:02.938Z,40000
2018-02-12T11:40:02.538Z,13000
2018-02-12T11:45:03.077Z,11000
2018-02-12T11:50:02.618Z,5000
2018-02-12T11:55:03.109Z,8000
2018-02-12T12:00:02.549Z,8000
2018-02-12T12:05:02.968Z,4000
2018-02-12T12:10:02.524Z,20000
2018-02-12T12:15:03.168Z,25000
2018-02-12T12:20:02.605Z,23000
2018-02-12T12:25:03.086Z,12000
2018-02-12T12:30:02.525Z,18000
2018-02-12T12:35:03.085Z,29000
2018-02-12T12:40:02.698Z,29000
2018-02-12T12:45:03.142Z,4000
2018-02-12T12:50:02.562Z,29000
2018-02-12T12:55:08.082Z,29000
2018-02-12T13:00:02.500Z,28000
2018-02-12T13:05:02.986Z,28000
2018-02-12T13:10:02.487Z,27000
2018-02-12T13:15:02.936Z,21000
2018-02-12T13:20:03.376Z,2000
2018-02-12T13:25:02.833Z,2000
2018-02-12T13:30:03.320Z,3000
2018-02-12T13:35:02.916Z,5000
2018-02-12T13:40:03.377Z,22000
2018-02-12T13:45:02.813Z,19000
2018-02-12T13:50:03.368Z,3000
2018-02-12T13:55:02.796Z,1000
2018-02-12T14:00:03.263Z,1000
2018-02-12T14:05:02.690Z,3000
2018-02-12T14:10:03.515Z,17000
2018-02-12T14:15:03.055Z,14000
2018-02-12T14:20:02.536Z,14000
2018-02-12T14:25:03.017Z,3000
2018-02-12T14:30:02.473Z,5000
2018-02-12T14:35:02.903Z,6000
2018-02-12T14:40:03.433Z,19000
2018-02-12T14:45:02.835Z,3000
2018-02-12T14:50:03.391Z,2000
2018-02-12T14:55:02.843Z,12000
2018-02-12T15:00:03.255Z,1000
2018-02-12T15:05:02.698Z,1000
2018-02-12T15:10:03.414Z,959
2018-02-12T15:15:02.853Z,1000
2018-02-12T15:20:03.313Z,2000
2018-02-12T15:25:02.779Z,5000
2018-02-12T15:30:03.225Z,2000
2018-02-12T15:35:02.743Z,1000
2018-02-12T15:40:03.380Z,1000
2018-02-12T15:45:03.103Z,7000
2018-02-12T15:50:02.561Z,4000
2018-02-12T15:55:03.016Z,1000
2018-02-12T16:00:02.613Z,1000
2018-02-12T16:05:03.161Z,1000
2018-02-12T16:10:02.623Z,1000
2018-02-12T16:15:03.100Z,1000
2018-02-12T16:20:02.582Z,725
2018-02-12T16:25:03.030Z,642
2018-02-12T16:30:02.656Z,513
2018-02-12T16:35:03.193Z,385
2018-02-12T16:40:02.716Z,261
2018-02-12T16:45:03.182Z,130
2018-02-12T16:50:02.736Z,76
2018-02-12T16:55:03.181Z,55
2018-02-12T17:00:02.619Z,40
2018-02-12T17:05:03.117Z,26
2018-02-12T17:10:02.614Z,13
2018-02-12T17:15:03.078Z,7
2018-02-12T17:20:02.605Z,3
2018-02-12T17:25:03.120Z,1
2018-02-12T17:30:02.585Z,1
2018-02-12T17:35:03.045Z,0
2018-02-12T17:40:02.576Z,0
2018-02-12T17:45:03.017Z,0
2018-02-12T17:50:02.545Z,0
2018-02-12T17:55:03.063Z,0
2018-02-12T18:00:02.630Z,0
2018-02-12T18:05:03.098Z,0
2018-02-12T18:10:02.609Z,0
2018-02-12T18:15:03.206Z,0
2018-02-12T18:20:02.776Z,0
2018-02-12T18:25:03.251Z,0
2018-02-12T18:30:02.681Z,0
2018-02-12T18:35:03.155Z,0
2018-02-12T18:40:02.709Z,0
2018-02-12T18:45:03.212Z,0
2018-02-12T18:50:02.684Z,0
2018-02-12T18:55:03.162Z,0
2018-02-12T19:00:02.650Z,0
2018-02-12T19:05:03.131Z,0
2018-02-12T19:10:02.778Z,0
2018-02-12T19:15:03.291Z,0
2018-02-12T19:20:02.861Z,0
2018-02-12T19:25:03.457Z,0
2018-02-12T19:30:02.946Z,0
2018-02-12T19:35:02.446Z,0
2018-02-12T19:40:03.016Z,0
2018-02-12T19:45:02.533Z,0
2018-02-12T19:50:03.042Z,0
2018-02-12T19:55:02.586Z,0
2018-02-12T20:00:03.274Z,0
2018-02-12T20:05:02.821Z,0
2018-02-12T20:10:03.399Z,0
2018-02-12T20:15:03.097Z,0
2018-02-12T20:20:02.593Z,0
2018-02-12T20:25:03.376Z,0
2018-02-12T20:30:02.957Z,0
2018-02-12T20:35:02.593Z,0
2018-02-12T20:40:03.363Z,0
2018-02-12T20:45:02.835Z,0
2018-02-12T20:50:03.324Z,0
2018-02-12T20:55:02.826Z,0
2018-02-12T21:00:03.339Z,0
2018-02-12T21:05:02.867Z,0
2018-02-12T21:10:03.462Z,0
2018-02-12T21:15:02.945Z,0
2018-02-12T21:20:02.557Z,0
2018-02-12T21:25:02.977Z,0
2018-02-12T21:30:03.629Z,0
2018-02-12T21:35:03.196Z,0
2018-02-12T21:40:02.699Z,0
2018-02-12T21:45:03.219Z,0
2018-02-12T21:50:02.726Z,0
2018-02-12T21:55:03.179Z,0
2018-02-12T22:00:02.876Z,0
2018-02-12T22:05:03.287Z,0
2018-02-12T22:10:02.735Z,0
2018-02-12T22:15:03.155Z,0
2018-02-12T22:20:02.624Z,0
2018-02-12T22:25:03.054Z,0
2018-02-12T22:30:02.752Z,0
2018-02-12T22:35:03.236Z,0
2018-02-12T22:40:02.735Z,0
2018-02-12T22:45:03.208Z,0
2018-02-12T22:50:02.731Z,0
2018-02-12T22:55:03.338Z,0
2018-02-12T23:00:02.815Z,0
2018-02-12T23:05:03.310Z,0
2018-02-12T23:10:02.903Z,0
2018-02-12T23:15:03.444Z,0
2018-02-12T23:20:02.946Z,0
2018-02-12T23:25:03.415Z,0
2018-02-12T23:30:02.853Z,0
2018-02-12T23:35:03.374Z,0
2018-02-12T23:40:02.854Z,0
2018-02-12T23:45:03.405Z,0
2018-02-12T23:50:02.874Z,0
2018-02-12T23:55:03.363Z,0
